Cape Henry — WBK3240 — position and weather

sailwx.info

Track history (hours):
 
Tides and Currents Weather Stations Pressure Air Temp Water Temp Dewpoint Dewpoint Depression Visibility Wind Speed Wind Dir Waves Ship Positions

Cape Henry

Owner: MORAN TOWING CORPORATION, New Canaan, CT. More information available from US FCC via Universal Licensing System and Coast Guard Vessel Documentation Center.

Last reported at 2018-Jan-20 18:30 UTC. Time now 2018-Jan-20 18:40 UTC.
Position N 39°53' W 075°11'.

Length 34 m; draft 4 m.

Type: Tug. MMSI: 367126620.

Date/timePositionNaut miles runAvg speedWind from/ knotsBaromVisibWave heightAir tempDewpointWater temp
2018-Jan-20 18:30N 39°53' W 075°11'0 0.0
2018-Jan-20 18:00N 39°53' W 075°11'0 0.0
2018-Jan-20 17:30N 39°53' W 075°11'0 0.0
2018-Jan-20 17:00N 39°53' W 075°11'0 0.0
2018-Jan-20 16:31N 39°53' W 075°11'1 1.6
2018-Jan-20 16:00N 39°54' W 075°12'1 1.2
2018-Jan-20 15:30N 39°53' W 075°12'1 1.5
2018-Jan-20 15:00N 39°53' W 075°11'0 0.0
2018-Jan-20 14:30N 39°53' W 075°11'0 0.0
2018-Jan-20 14:00N 39°53' W 075°11'0 0.0
2018-Jan-20 13:31N 39°53' W 075°11'0 0.0
2018-Jan-20 13:00N 39°53' W 075°11'0 0.0
2018-Jan-20 12:30N 39°53' W 075°11'0 0.0
2018-Jan-20 12:01N 39°53' W 075°11'0 0.0
2018-Jan-20 11:31N 39°53' W 075°11'0 0.0
2018-Jan-20 11:00N 39°53' W 075°11'0 0.0
2018-Jan-20 10:30N 39°53' W 075°11'0 0.0
2018-Jan-20 09:59N 39°53' W 075°11'0 0.0
2018-Jan-20 09:31N 39°53' W 075°11'0 0.0
2018-Jan-20 09:00N 39°53' W 075°11'0 0.0
2018-Jan-20 08:30N 39°53' W 075°11'0 0.0
2018-Jan-20 08:00N 39°53' W 075°11'0 0.0
2018-Jan-20 07:30N 39°53' W 075°11'0 0.0
2018-Jan-20 07:01N 39°53' W 075°11'0 0.0
2018-Jan-20 06:31N 39°53' W 075°11'0 0.0
2018-Jan-20 06:00N 39°53' W 075°11'0 0.0
2018-Jan-20 05:31N 39°53' W 075°11'0 0.0
2018-Jan-20 05:01N 39°53' W 075°11'0 0.0
2018-Jan-20 04:30N 39°53' W 075°11'0 0.0
2018-Jan-20 04:00N 39°53' W 075°11'0 0.0
2018-Jan-20 03:30N 39°53' W 075°11'0 0.0
2018-Jan-20 03:00N 39°53' W 075°11'0 0.0
2018-Jan-20 02:30N 39°53' W 075°11'0 0.0
2018-Jan-20 02:01N 39°53' W 075°11'0 0.0
2018-Jan-20 01:30N 39°53' W 075°11'0 0.0
2018-Jan-20 01:00N 39°53' W 075°11'0 0.0
2018-Jan-20 00:30N 39°53' W 075°11'0 0.0
2018-Jan-20 00:00N 39°53' W 075°11'0 0.0
2018-Jan-19 23:30N 39°53' W 075°11'0 0.0
2018-Jan-19 23:01N 39°53' W 075°11'0 0.0
2018-Jan-19 22:31N 39°53' W 075°11'0 0.0
2018-Jan-19 22:00N 39°53' W 075°11'0 0.0
2018-Jan-19 21:30N 39°53' W 075°11'0 0.0
2018-Jan-19 21:01N 39°53' W 075°11'0 0.0
2018-Jan-19 20:31N 39°53' W 075°11'0 0.0
2018-Jan-19 20:00N 39°53' W 075°11'0 0.0
2018-Jan-19 19:30N 39°53' W 075°11'0 0.0
2018-Jan-19 19:00N 39°53' W 075°11'0 0.0
2018-Jan-19 18:30N 39°53' W 075°11'0 0.0
2018-Jan-19 18:01N 39°53' W 075°11'0 0.0
2018-Jan-19 17:31N 39°53' W 075°11'0 0.0
2018-Jan-19 17:01N 39°53' W 075°11'0 0.0
2018-Jan-19 16:30N 39°53' W 075°11'0 0.0
2018-Jan-19 16:01N 39°53' W 075°11'0 0.0
2018-Jan-19 15:30N 39°53' W 075°11'0 0.0
2018-Jan-19 15:00N 39°53' W 075°11'0 0.0
2018-Jan-19 14:31N 39°53' W 075°11'0 0.0
2018-Jan-19 14:00N 39°53' W 075°11'0 0.0
2018-Jan-19 13:31N 39°53' W 075°11'0 0.0
2018-Jan-19 13:00N 39°53' W 075°11'0 0.0
2018-Jan-19 12:31N 39°53' W 075°11'0 0.0
2018-Jan-19 12:00N 39°53' W 075°11'0 0.0
2018-Jan-19 11:31N 39°53' W 075°11'2 4.4
2018-Jan-19 11:00N 39°54' W 075°08'0 0.2
2018-Jan-19 10:31N 39°54' W 075°08'2 4.6
2018-Jan-19 10:01N 39°53' W 075°11'3 5.6
2018-Jan-19 09:31N 39°52' W 075°14'2 3.7
2018-Jan-19 09:01N 39°51' W 075°16'0 0.0
2018-Jan-19 08:30N 39°51' W 075°16'0 0.2
2018-Jan-19 08:01N 39°51' W 075°16'2 3.0
2018-Jan-19 07:30N 39°51' W 075°18'2 3.7
2018-Jan-19 07:01N 39°51' W 075°16'4 8.1
2018-Jan-19 06:31N 39°53' W 075°11'0 0.8
2018-Jan-19 06:00N 39°53' W 075°11'0 0.0
2018-Jan-19 05:30N 39°53' W 075°11'0 0.0
2018-Jan-19 05:00N 39°53' W 075°11'0 0.0
2018-Jan-19 04:31N 39°53' W 075°11'0 0.0
2018-Jan-19 04:00N 39°53' W 075°11'0 0.0
2018-Jan-19 03:30N 39°53' W 075°11'0 0.0
2018-Jan-19 03:00N 39°53' W 075°11'0 0.0
2018-Jan-19 02:31N 39°53' W 075°11'0 0.0
2018-Jan-19 02:00N 39°53' W 075°11'0 0.0
2018-Jan-19 01:30N 39°53' W 075°11'0 0.0
2018-Jan-19 01:00N 39°53' W 075°11'0 0.0
2018-Jan-19 00:30N 39°53' W 075°11'0 0.0
2018-Jan-19 00:00N 39°53' W 075°11'0 0.0
2018-Jan-18 23:30N 39°53' W 075°11'0 0.0
2018-Jan-18 23:01N 39°53' W 075°11'0 0.0
2018-Jan-18 22:30N 39°53' W 075°11'0 0.0
2018-Jan-18 22:01N 39°53' W 075°11'0 0.0
2018-Jan-18 21:30N 39°53' W 075°11'0 0.0
2018-Jan-18 21:00N 39°53' W 075°11'0 0.0
2018-Jan-18 20:07N 39°53' W 075°11'0 0.0
2018-Jan-18 20:00N 39°53' W 075°11'0 0.0
2018-Jan-18 19:30N 39°53' W 075°11'0 0.0
2018-Jan-18 19:00N 39°53' W 075°11'0 0.0
2018-Jan-18 18:31N 39°53' W 075°11'0 0.0
2018-Jan-18 18:01N 39°53' W 075°11'0 0.0
2018-Jan-18 17:31N 39°53' W 075°11'0 0.0
2018-Jan-18 17:00N 39°53' W 075°11'0 0.0
2018-Jan-18 16:30N 39°53' W 075°11'0 0.0
2018-Jan-18 16:00N 39°53' W 075°11'0 0.0
2018-Jan-18 15:30N 39°53' W 075°11'0 0.0
2018-Jan-18 15:01N 39°53' W 075°11'0 0.0
2018-Jan-18 14:30N 39°53' W 075°11'0 0.0
2018-Jan-18 14:01N 39°53' W 075°11'0 0.0
2018-Jan-18 13:31N 39°53' W 075°11'0 0.0
2018-Jan-18 13:01N 39°53' W 075°11'0 0.0
2018-Jan-18 12:30N 39°53' W 075°11'0 0.0
2018-Jan-18 12:00N 39°53' W 075°11'0 0.0
2018-Jan-18 11:30N 39°53' W 075°11'0 0.0
2018-Jan-18 11:00N 39°53' W 075°11'0 0.0
2018-Jan-18 10:30N 39°53' W 075°11'0 0.0
2018-Jan-18 10:00N 39°53' W 075°11'0 0.0
2018-Jan-18 09:31N 39°53' W 075°11'0 0.0
2018-Jan-18 09:00N 39°53' W 075°11'0 0.0
2018-Jan-18 08:31N 39°53' W 075°11'0 0.0
2018-Jan-18 08:00N 39°53' W 075°11'0 0.0
2018-Jan-18 07:30N 39°53' W 075°11'0 0.0
2018-Jan-18 07:01N 39°53' W 075°11'0 0.0
2018-Jan-18 06:30N 39°53' W 075°11'2 4.5
2018-Jan-18 06:00N 39°54' W 075°08'2 3.8
2018-Jan-18 05:30N 39°56' W 075°08'0 0.1
2018-Jan-18 05:00N 39°56' W 075°08'1 1.7
2018-Jan-18 04:31N 39°55' W 075°08'3 5.8
2018-Jan-18 04:00N 39°53' W 075°11'0 0.0
2018-Jan-18 03:31N 39°53' W 075°11'0 0.0
2018-Jan-18 03:01N 39°53' W 075°11'0 0.0
2018-Jan-18 02:30N 39°53' W 075°11'0 0.0
2018-Jan-18 02:00N 39°53' W 075°11'0 0.0
2018-Jan-18 01:31N 39°53' W 075°11'0 0.0
2018-Jan-18 01:00N 39°53' W 075°11'0 0.0
2018-Jan-18 00:01N 39°53' W 075°11'0 0.0
2018-Jan-17 23:57N 39°53' W 075°11'  
2018-Jan-12 15:00N 39°53' W 075°11'0 0.0
2018-Jan-12 14:30N 39°53' W 075°11'0 0.0
2018-Jan-12 14:00N 39°53' W 075°11'0 0.0
2018-Jan-12 13:30N 39°53' W 075°11'0 0.0
2018-Jan-12 13:00N 39°53' W 075°11'0 0.0
2018-Jan-12 12:30N 39°53' W 075°11'0 0.0
2018-Jan-12 12:00N 39°53' W 075°11'0 0.0
2018-Jan-12 11:30N 39°53' W 075°11'0 0.0
2018-Jan-12 11:00N 39°53' W 075°11'0 0.0
2018-Jan-12 10:30N 39°53' W 075°11'0 0.0
2018-Jan-12 10:00N 39°53' W 075°11'0 0.0
2018-Jan-12 09:30N 39°53' W 075°11'1 1.2
2018-Jan-12 09:00N 39°53' W 075°10'2 4.5
2018-Jan-12 08:30N 39°54' W 075°08'0 0.0
2018-Jan-12 08:01N 39°54' W 075°08'0 0.3
2018-Jan-12 07:30N 39°54' W 075°08'2 5.0
2018-Jan-12 07:00N 39°53' W 075°11'0 0.0
2018-Jan-12 06:30N 39°53' W 075°11'0 0.0
2018-Jan-12 06:00N 39°53' W 075°11'0 0.0
2018-Jan-12 05:30N 39°53' W 075°11'0 0.0
2018-Jan-12 05:00N 39°53' W 075°11'0 0.0
2018-Jan-12 04:30N 39°53' W 075°11'0 0.0
2018-Jan-12 04:00N 39°53' W 075°11'0 0.0
2018-Jan-12 03:30N 39°53' W 075°11'0 0.0
2018-Jan-12 03:00N 39°53' W 075°11'0 0.0
2018-Jan-12 02:30N 39°53' W 075°11'0 0.0
2018-Jan-12 02:00N 39°53' W 075°11'0 0.0
2018-Jan-12 01:30N 39°53' W 075°11'0 0.0
2018-Jan-12 01:00N 39°53' W 075°11'0 0.0
2018-Jan-12 00:30N 39°53' W 075°11'0 0.0
2018-Jan-12 00:00N 39°53' W 075°11'0 0.0
2018-Jan-11 23:30N 39°53' W 075°11'0 0.0
2018-Jan-11 23:00N 39°53' W 075°11'0 0.0
2018-Jan-11 22:30N 39°53' W 075°11'3 5.5
2018-Jan-11 22:00N 39°52' W 075°14'510.4
2018-Jan-11 21:31N 39°51' W 075°20'4 8.5
2018-Jan-11 21:00N 39°48' W 075°25'5 9.7
2018-Jan-11 20:30N 39°45' W 075°29'4 8.7
2018-Jan-11 20:00N 39°41' W 075°31'510.1
2018-Jan-11 19:30N 39°36' W 075°34'2 3.4
2018-Jan-11 19:00N 39°35' W 075°35'1 1.9
2018-Jan-11 18:30N 39°35' W 075°36'0 0.5
2018-Jan-11 18:00N 39°35' W 075°35'2 4.9
2018-Jan-11 17:30N 39°34' W 075°33'1 2.8
2018-Jan-11 17:00N 39°35' W 075°33'4 8.9
2018-Jan-11 16:30N 39°39' W 075°33'611.1
2018-Jan-11 16:00N 39°44' W 075°30'510.8
2018-Jan-11 15:30N 39°48' W 075°25'5 9.9
2018-Jan-11 15:00N 39°51' W 075°19'5 9.7
2018-Jan-11 14:30N 39°52' W 075°13'2 4.6
2018-Jan-11 14:00N 39°53' W 075°11'0 0.0
2018-Jan-11 13:30N 39°53' W 075°11'0 0.0
2018-Jan-11 13:00N 39°53' W 075°11'0 0.0
2018-Jan-11 12:30N 39°53' W 075°11'0 0.0
2018-Jan-11 12:00N 39°53' W 075°11'0 0.0
2018-Jan-11 11:30N 39°53' W 075°11'0 0.0
2018-Jan-11 11:00N 39°53' W 075°11'0 0.0
2018-Jan-11 10:30N 39°53' W 075°11'0 0.0
2018-Jan-11 10:00N 39°53' W 075°11'0 0.0
2018-Jan-11 09:30N 39°53' W 075°11'0 0.0
2018-Jan-11 09:00N 39°53' W 075°11'0 0.0
2018-Jan-11 08:30N 39°53' W 075°11'0 0.0
2018-Jan-11 08:00N 39°53' W 075°11'0 0.0
2018-Jan-11 07:30N 39°53' W 075°11'0 0.0
2018-Jan-11 07:00N 39°53' W 075°11'0 0.0
2018-Jan-11 06:30N 39°53' W 075°11'0 0.0
2018-Jan-11 06:00N 39°53' W 075°11'0 0.0
2018-Jan-11 05:30N 39°53' W 075°11'0 0.0
2018-Jan-11 05:00N 39°53' W 075°11'0 0.0
2018-Jan-11 04:31N 39°53' W 075°11'0 0.0
2018-Jan-11 04:00N 39°53' W 075°11'0 0.0
2018-Jan-11 03:30N 39°53' W 075°11'0 0.0
2018-Jan-11 03:00N 39°53' W 075°11'0 0.2
2018-Jan-11 02:30N 39°53' W 075°11'3 5.6
2018-Jan-11 02:00N 39°55' W 075°08'0 0.1
2018-Jan-11 01:30N 39°55' W 075°08'0 0.1
2018-Jan-11 01:00N 39°55' W 075°08'0 0.0
2018-Jan-11 00:30N 39°55' W 075°08'0 0.0
2018-Jan-11 00:00N 39°55' W 075°08'0 0.0
2018-Jan-10 23:30N 39°55' W 075°08'0 0.0
2018-Jan-10 23:00N 39°55' W 075°08'0 0.0
2018-Jan-10 22:30N 39°55' W 075°08'0 0.0
2018-Jan-10 22:00N 39°55' W 075°08'0 0.0
2018-Jan-10 21:30N 39°55' W 075°08'0 0.0
2018-Jan-10 21:00N 39°55' W 075°08'0 0.1
2018-Jan-10 20:30N 39°55' W 075°08'0 0.4
2018-Jan-10 20:00N 39°55' W 075°08'0 0.2
2018-Jan-10 19:30N 39°55' W 075°08'0 0.0
2018-Jan-10 19:00N 39°55' W 075°08'0 0.6
2018-Jan-10 18:30N 39°55' W 075°08'  
Track history (hours):
 
Tides and Currents Weather Stations Pressure Air Temp Water Temp Dewpoint Dewpoint Depression Visibility Wind Speed Wind Dir Waves Ship Positions

Cape Henry

Owner: MORAN TOWING CORPORATION, New Canaan, CT. More information available from US FCC via Universal Licensing System and Coast Guard Vessel Documentation Center.

Last reported at 2018-Jan-20 18:30 UTC. Time now 2018-Jan-20 18:40 UTC.
Position N 39°53' W 075°11'.

Length 34 m; draft 4 m.

Type: Tug. MMSI: 367126620.

Date/timePositionNaut miles runAvg speedWind from/ knotsBaromVisibWave heightAir tempDewpointWater temp
2018-Jan-20 18:30N 39°53' W 075°11'0 0.0
2018-Jan-20 18:00N 39°53' W 075°11'0 0.0
2018-Jan-20 17:30N 39°53' W 075°11'0 0.0
2018-Jan-20 17:00N 39°53' W 075°11'0 0.0
2018-Jan-20 16:31N 39°53' W 075°11'1 1.6
2018-Jan-20 16:00N 39°54' W 075°12'1 1.2
2018-Jan-20 15:30N 39°53' W 075°12'1 1.5
2018-Jan-20 15:00N 39°53' W 075°11'0 0.0
2018-Jan-20 14:30N 39°53' W 075°11'0 0.0
2018-Jan-20 14:00N 39°53' W 075°11'0 0.0
2018-Jan-20 13:31N 39°53' W 075°11'0 0.0
2018-Jan-20 13:00N 39°53' W 075°11'0 0.0
2018-Jan-20 12:30N 39°53' W 075°11'0 0.0
2018-Jan-20 12:01N 39°53' W 075°11'0 0.0
2018-Jan-20 11:31N 39°53' W 075°11'0 0.0
2018-Jan-20 11:00N 39°53' W 075°11'0 0.0
2018-Jan-20 10:30N 39°53' W 075°11'0 0.0
2018-Jan-20 09:59N 39°53' W 075°11'0 0.0
2018-Jan-20 09:31N 39°53' W 075°11'0 0.0
2018-Jan-20 09:00N 39°53' W 075°11'0 0.0
2018-Jan-20 08:30N 39°53' W 075°11'0 0.0
2018-Jan-20 08:00N 39°53' W 075°11'0 0.0
2018-Jan-20 07:30N 39°53' W 075°11'0 0.0
2018-Jan-20 07:01N 39°53' W 075°11'0 0.0
2018-Jan-20 06:31N 39°53' W 075°11'0 0.0
2018-Jan-20 06:00N 39°53' W 075°11'0 0.0
2018-Jan-20 05:31N 39°53' W 075°11'0 0.0
2018-Jan-20 05:01N 39°53' W 075°11'0 0.0
2018-Jan-20 04:30N 39°53' W 075°11'0 0.0
2018-Jan-20 04:00N 39°53' W 075°11'0 0.0
2018-Jan-20 03:30N 39°53' W 075°11'0 0.0
2018-Jan-20 03:00N 39°53' W 075°11'0 0.0
2018-Jan-20 02:30N 39°53' W 075°11'0 0.0
2018-Jan-20 02:01N 39°53' W 075°11'0 0.0
2018-Jan-20 01:30N 39°53' W 075°11'0 0.0
2018-Jan-20 01:00N 39°53' W 075°11'0 0.0
2018-Jan-20 00:30N 39°53' W 075°11'0 0.0
2018-Jan-20 00:00N 39°53' W 075°11'0 0.0
2018-Jan-19 23:30N 39°53' W 075°11'0 0.0
2018-Jan-19 23:01N 39°53' W 075°11'0 0.0
2018-Jan-19 22:31N 39°53' W 075°11'0 0.0
2018-Jan-19 22:00N 39°53' W 075°11'0 0.0
2018-Jan-19 21:30N 39°53' W 075°11'0 0.0
2018-Jan-19 21:01N 39°53' W 075°11'0 0.0
2018-Jan-19 20:31N 39°53' W 075°11'0 0.0
2018-Jan-19 20:00N 39°53' W 075°11'0 0.0
2018-Jan-19 19:30N 39°53' W 075°11'0 0.0
2018-Jan-19 19:00N 39°53' W 075°11'0 0.0
2018-Jan-19 18:30N 39°53' W 075°11'0 0.0
2018-Jan-19 18:01N 39°53' W 075°11'0 0.0
2018-Jan-19 17:31N 39°53' W 075°11'0 0.0
2018-Jan-19 17:01N 39°53' W 075°11'0 0.0
2018-Jan-19 16:30N 39°53' W 075°11'0 0.0
2018-Jan-19 16:01N 39°53' W 075°11'0 0.0
2018-Jan-19 15:30N 39°53' W 075°11'0 0.0
2018-Jan-19 15:00N 39°53' W 075°11'0 0.0
2018-Jan-19 14:31N 39°53' W 075°11'0 0.0
2018-Jan-19 14:00N 39°53' W 075°11'0 0.0
2018-Jan-19 13:31N 39°53' W 075°11'0 0.0
2018-Jan-19 13:00N 39°53' W 075°11'0 0.0
2018-Jan-19 12:31N 39°53' W 075°11'0 0.0
2018-Jan-19 12:00N 39°53' W 075°11'0 0.0
2018-Jan-19 11:31N 39°53' W 075°11'2 4.4
2018-Jan-19 11:00N 39°54' W 075°08'0 0.2
2018-Jan-19 10:31N 39°54' W 075°08'2 4.6
2018-Jan-19 10:01N 39°53' W 075°11'3 5.6
2018-Jan-19 09:31N 39°52' W 075°14'2 3.7
2018-Jan-19 09:01N 39°51' W 075°16'0 0.0
2018-Jan-19 08:30N 39°51' W 075°16'0 0.2
2018-Jan-19 08:01N 39°51' W 075°16'2 3.0
2018-Jan-19 07:30N 39°51' W 075°18'2 3.7
2018-Jan-19 07:01N 39°51' W 075°16'4 8.1
2018-Jan-19 06:31N 39°53' W 075°11'0 0.8
2018-Jan-19 06:00N 39°53' W 075°11'0 0.0
2018-Jan-19 05:30N 39°53' W 075°11'0 0.0
2018-Jan-19 05:00N 39°53' W 075°11'0 0.0
2018-Jan-19 04:31N 39°53' W 075°11'0 0.0
2018-Jan-19 04:00N 39°53' W 075°11'0 0.0
2018-Jan-19 03:30N 39°53' W 075°11'0 0.0
2018-Jan-19 03:00N 39°53' W 075°11'0 0.0
2018-Jan-19 02:31N 39°53' W 075°11'0 0.0
2018-Jan-19 02:00N 39°53' W 075°11'0 0.0
2018-Jan-19 01:30N 39°53' W 075°11'0 0.0
2018-Jan-19 01:00N 39°53' W 075°11'0 0.0
2018-Jan-19 00:30N 39°53' W 075°11'0 0.0
2018-Jan-19 00:00N 39°53' W 075°11'0 0.0
2018-Jan-18 23:30N 39°53' W 075°11'0 0.0
2018-Jan-18 23:01N 39°53' W 075°11'0 0.0
2018-Jan-18 22:30N 39°53' W 075°11'0 0.0
2018-Jan-18 22:01N 39°53' W 075°11'0 0.0
2018-Jan-18 21:30N 39°53' W 075°11'0 0.0
2018-Jan-18 21:00N 39°53' W 075°11'0 0.0
2018-Jan-18 20:07N 39°53' W 075°11'0 0.0
2018-Jan-18 20:00N 39°53' W 075°11'0 0.0
2018-Jan-18 19:30N 39°53' W 075°11'0 0.0
2018-Jan-18 19:00N 39°53' W 075°11'0 0.0
2018-Jan-18 18:31N 39°53' W 075°11'0 0.0
2018-Jan-18 18:01N 39°53' W 075°11'0 0.0
2018-Jan-18 17:31N 39°53' W 075°11'0 0.0
2018-Jan-18 17:00N 39°53' W 075°11'0 0.0
2018-Jan-18 16:30N 39°53' W 075°11'0 0.0
2018-Jan-18 16:00N 39°53' W 075°11'0 0.0
2018-Jan-18 15:30N 39°53' W 075°11'0 0.0
2018-Jan-18 15:01N 39°53' W 075°11'0 0.0
2018-Jan-18 14:30N 39°53' W 075°11'0 0.0
2018-Jan-18 14:01N 39°53' W 075°11'0 0.0
2018-Jan-18 13:31N 39°53' W 075°11'0 0.0
2018-Jan-18 13:01N 39°53' W 075°11'0 0.0
2018-Jan-18 12:30N 39°53' W 075°11'0 0.0
2018-Jan-18 12:00N 39°53' W 075°11'0 0.0
2018-Jan-18 11:30N 39°53' W 075°11'0 0.0
2018-Jan-18 11:00N 39°53' W 075°11'0 0.0
2018-Jan-18 10:30N 39°53' W 075°11'0 0.0
2018-Jan-18 10:00N 39°53' W 075°11'0 0.0
2018-Jan-18 09:31N 39°53' W 075°11'0 0.0
2018-Jan-18 09:00N 39°53' W 075°11'0 0.0
2018-Jan-18 08:31N 39°53' W 075°11'0 0.0
2018-Jan-18 08:00N 39°53' W 075°11'0 0.0
2018-Jan-18 07:30N 39°53' W 075°11'0 0.0
2018-Jan-18 07:01N 39°53' W 075°11'0 0.0
2018-Jan-18 06:30N 39°53' W 075°11'2 4.5
2018-Jan-18 06:00N 39°54' W 075°08'2 3.8
2018-Jan-18 05:30N 39°56' W 075°08'0 0.1
2018-Jan-18 05:00N 39°56' W 075°08'1 1.7
2018-Jan-18 04:31N 39°55' W 075°08'3 5.8
2018-Jan-18 04:00N 39°53' W 075°11'0 0.0
2018-Jan-18 03:31N 39°53' W 075°11'0 0.0
2018-Jan-18 03:01N 39°53' W 075°11'0 0.0
2018-Jan-18 02:30N 39°53' W 075°11'0 0.0
2018-Jan-18 02:00N 39°53' W 075°11'0 0.0
2018-Jan-18 01:31N 39°53' W 075°11'0 0.0
2018-Jan-18 01:00N 39°53' W 075°11'0 0.0
2018-Jan-18 00:01N 39°53' W 075°11'0 0.0
2018-Jan-17 23:57N 39°53' W 075°11'  
2018-Jan-12 15:00N 39°53' W 075°11'0 0.0
2018-Jan-12 14:30N 39°53' W 075°11'0 0.0
2018-Jan-12 14:00N 39°53' W 075°11'0 0.0
2018-Jan-12 13:30N 39°53' W 075°11'0 0.0
2018-Jan-12 13:00N 39°53' W 075°11'0 0.0
2018-Jan-12 12:30N 39°53' W 075°11'0 0.0
2018-Jan-12 12:00N 39°53' W 075°11'0 0.0
2018-Jan-12 11:30N 39°53' W 075°11'0 0.0
2018-Jan-12 11:00N 39°53' W 075°11'0 0.0
2018-Jan-12 10:30N 39°53' W 075°11'0 0.0
2018-Jan-12 10:00N 39°53' W 075°11'0 0.0
2018-Jan-12 09:30N 39°53' W 075°11'1 1.2
2018-Jan-12 09:00N 39°53' W 075°10'2 4.5
2018-Jan-12 08:30N 39°54' W 075°08'0 0.0
2018-Jan-12 08:01N 39°54' W 075°08'0 0.3
2018-Jan-12 07:30N 39°54' W 075°08'2 5.0
2018-Jan-12 07:00N 39°53' W 075°11'0 0.0
2018-Jan-12 06:30N 39°53' W 075°11'0 0.0
2018-Jan-12 06:00N 39°53' W 075°11'0 0.0
2018-Jan-12 05:30N 39°53' W 075°11'0 0.0
2018-Jan-12 05:00N 39°53' W 075°11'0 0.0
2018-Jan-12 04:30N 39°53' W 075°11'0 0.0
2018-Jan-12 04:00N 39°53' W 075°11'0 0.0
2018-Jan-12 03:30N 39°53' W 075°11'0 0.0
2018-Jan-12 03:00N 39°53' W 075°11'0 0.0
2018-Jan-12 02:30N 39°53' W 075°11'0 0.0
2018-Jan-12 02:00N 39°53' W 075°11'0 0.0
2018-Jan-12 01:30N 39°53' W 075°11'0 0.0
2018-Jan-12 01:00N 39°53' W 075°11'0 0.0
2018-Jan-12 00:30N 39°53' W 075°11'0 0.0
2018-Jan-12 00:00N 39°53' W 075°11'0 0.0
2018-Jan-11 23:30N 39°53' W 075°11'0 0.0
2018-Jan-11 23:00N 39°53' W 075°11'0 0.0
2018-Jan-11 22:30N 39°53' W 075°11'3 5.5
2018-Jan-11 22:00N 39°52' W 075°14'510.4
2018-Jan-11 21:31N 39°51' W 075°20'4 8.5
2018-Jan-11 21:00N 39°48' W 075°25'5 9.7
2018-Jan-11 20:30N 39°45' W 075°29'4 8.7
2018-Jan-11 20:00N 39°41' W 075°31'510.1
2018-Jan-11 19:30N 39°36' W 075°34'2 3.4
2018-Jan-11 19:00N 39°35' W 075°35'1 1.9
2018-Jan-11 18:30N 39°35' W 075°36'0 0.5
2018-Jan-11 18:00N 39°35' W 075°35'2 4.9
2018-Jan-11 17:30N 39°34' W 075°33'1 2.8
2018-Jan-11 17:00N 39°35' W 075°33'4 8.9
2018-Jan-11 16:30N 39°39' W 075°33'611.1
2018-Jan-11 16:00N 39°44' W 075°30'510.8
2018-Jan-11 15:30N 39°48' W 075°25'5 9.9
2018-Jan-11 15:00N 39°51' W 075°19'5 9.7
2018-Jan-11 14:30N 39°52' W 075°13'2 4.6
2018-Jan-11 14:00N 39°53' W 075°11'0 0.0
2018-Jan-11 13:30N 39°53' W 075°11'0 0.0
2018-Jan-11 13:00N 39°53' W 075°11'0 0.0
2018-Jan-11 12:30N 39°53' W 075°11'0 0.0
2018-Jan-11 12:00N 39°53' W 075°11'0 0.0
2018-Jan-11 11:30N 39°53' W 075°11'0 0.0
2018-Jan-11 11:00N 39°53' W 075°11'0 0.0
2018-Jan-11 10:30N 39°53' W 075°11'0 0.0
2018-Jan-11 10:00N 39°53' W 075°11'0 0.0
2018-Jan-11 09:30N 39°53' W 075°11'0 0.0
2018-Jan-11 09:00N 39°53' W 075°11'0 0.0
2018-Jan-11 08:30N 39°53' W 075°11'0 0.0
2018-Jan-11 08:00N 39°53' W 075°11'0 0.0
2018-Jan-11 07:30N 39°53' W 075°11'0 0.0
2018-Jan-11 07:00N 39°53' W 075°11'0 0.0
2018-Jan-11 06:30N 39°53' W 075°11'0 0.0
2018-Jan-11 06:00N 39°53' W 075°11'0 0.0
2018-Jan-11 05:30N 39°53' W 075°11'0 0.0
2018-Jan-11 05:00N 39°53' W 075°11'0 0.0
2018-Jan-11 04:31N 39°53' W 075°11'0 0.0
2018-Jan-11 04:00N 39°53' W 075°11'0 0.0
2018-Jan-11 03:30N 39°53' W 075°11'0 0.0
2018-Jan-11 03:00N 39°53' W 075°11'0 0.2
2018-Jan-11 02:30N 39°53' W 075°11'3 5.6
2018-Jan-11 02:00N 39°55' W 075°08'0 0.1
2018-Jan-11 01:30N 39°55' W 075°08'0 0.1
2018-Jan-11 01:00N 39°55' W 075°08'0 0.0
2018-Jan-11 00:30N 39°55' W 075°08'0 0.0
2018-Jan-11 00:00N 39°55' W 075°08'0 0.0
2018-Jan-10 23:30N 39°55' W 075°08'0 0.0
2018-Jan-10 23:00N 39°55' W 075°08'0 0.0
2018-Jan-10 22:30N 39°55' W 075°08'0 0.0
2018-Jan-10 22:00N 39°55' W 075°08'0 0.0
2018-Jan-10 21:30N 39°55' W 075°08'0 0.0
2018-Jan-10 21:00N 39°55' W 075°08'0 0.1
2018-Jan-10 20:30N 39°55' W 075°08'0 0.4
2018-Jan-10 20:00N 39°55' W 075°08'0 0.2
2018-Jan-10 19:30N 39°55' W 075°08'0 0.0
2018-Jan-10 19:00N 39°55' W 075°08'0 0.6
2018-Jan-10 18:30N 39°55' W 075°08'  

Dump ship's entire track history